createdAt,value
2019-02-04T00:00:44.076Z,9.53
2019-02-04T00:02:00.562Z,9.50
2019-02-04T00:03:17.901Z,8.55
2019-02-04T00:04:35.082Z,8.45
2019-02-04T00:05:51.709Z,9.43
2019-02-04T00:07:08.159Z,8.50
2019-02-04T00:08:25.489Z,9.43
2019-02-04T00:09:45.753Z,7.92
2019-02-04T00:11:02.685Z,7.70
2019-02-04T00:12:19.417Z,7.85
2019-02-04T00:13:35.976Z,8.45
2019-02-04T00:14:53.360Z,10.15
2019-02-04T00:16:09.852Z,8.08
2019-02-04T00:17:27.690Z,9.70
2019-02-04T00:18:44.480Z,9.75
2019-02-04T00:20:01.177Z,9.00
2019-02-04T00:21:17.745Z,9.35
2019-02-04T00:22:34.265Z,9.80
2019-02-04T00:23:50.557Z,10.72
2019-02-04T00:25:06.941Z,10.40
2019-02-04T00:26:24.184Z,8.90
2019-02-04T00:27:41.408Z,11.73
2019-02-04T00:28:58.337Z,9.43
2019-02-04T00:30:14.888Z,10.25
2019-02-04T00:31:31.425Z,12.05
2019-02-04T00:32:48.525Z,9.08
2019-02-04T00:34:04.978Z,10.35
2019-02-04T00:35:21.707Z,8.90
2019-02-04T00:36:38.201Z,9.75
2019-02-04T00:37:54.432Z,8.98
2019-02-04T00:39:10.897Z,9.50
2019-02-04T00:40:28.053Z,9.75
2019-02-04T00:41:44.557Z,10.28
2019-02-04T00:43:01.420Z,10.25
2019-02-04T00:44:18.646Z,11.22
2019-02-04T00:45:35.504Z,10.98
2019-02-04T00:46:52.765Z,8.20
2019-02-04T00:48:09.132Z,9.48
2019-02-04T00:49:25.645Z,8.63
2019-02-04T00:50:42.344Z,8.38
2019-02-04T00:51:58.722Z,10.85
2019-02-04T00:53:15.241Z,9.05
2019-02-04T00:54:32.452Z,8.78
2019-02-04T00:55:49.562Z,8.73
2019-02-04T00:57:05.924Z,9.18
2019-02-04T00:58:23.070Z,10.53
2019-02-04T00:59:38.362Z,8.00
2019-02-04T01:01:02.519Z,10.45
2019-02-04T01:02:19.181Z,8.00
2019-02-04T01:03:35.693Z,10.38
2019-02-04T01:04:52.016Z,7.55
2019-02-04T01:06:08.645Z,11.80
2019-02-04T01:07:25.121Z,11.28
2019-02-04T01:08:41.622Z,9.58
2019-02-04T01:09:58.308Z,9.53
2019-02-04T01:11:14.669Z,9.73
2019-02-04T01:12:31.521Z,10.28
2019-02-04T01:13:49.129Z,9.18
2019-02-04T01:15:05.948Z,8.98
2019-02-04T01:16:22.402Z,13.58
2019-02-04T01:17:38.807Z,9.38
2019-02-04T01:18:55.314Z,10.95
2019-02-04T01:20:12.203Z,9.50
2019-02-04T01:21:29.256Z,11.55
2019-02-04T01:22:45.547Z,12.78
2019-02-04T01:24:02.612Z,9.43
2019-02-04T01:25:19.116Z,9.45
2019-02-04T01:26:34.255Z,12.00
2019-02-04T01:27:50.780Z,9.98
2019-02-04T01:29:07.445Z,8.38
2019-02-04T01:30:23.767Z,11.95
2019-02-04T01:31:40.257Z,8.83
2019-02-04T01:32:57.037Z,8.43
2019-02-04T01:34:13.929Z,11.15
2019-02-04T01:35:30.533Z,9.75
2019-02-04T01:36:47.297Z,12.63
2019-02-04T01:38:04.775Z,10.08
2019-02-04T01:39:21.269Z,10.20
2019-02-04T01:40:38.416Z,9.88
2019-02-04T01:41:55.427Z,9.73
2019-02-04T01:43:12.160Z,8.03
2019-02-04T01:44:28.920Z,10.15
2019-02-04T01:45:46.309Z,11.10
2019-02-04T01:47:02.891Z,9.60
2019-02-04T01:48:19.965Z,10.93
2019-02-04T01:49:36.611Z,9.05
2019-02-04T01:50:53.227Z,10.68
2019-02-04T01:52:09.700Z,9.40
2019-02-04T01:53:26.648Z,9.03
2019-02-04T01:54:43.848Z,9.35
2019-02-04T01:56:00.516Z,10.25
2019-02-04T01:57:17.192Z,10.72
2019-02-04T01:58:33.601Z,14.05
2019-02-04T01:59:50.788Z,8.90
2019-02-04T02:01:07.463Z,9.95
2019-02-04T02:02:24.492Z,12.05
2019-02-04T02:03:41.054Z,10.10
2019-02-04T02:04:58.300Z,10.40
2019-02-04T02:06:17.273Z,11.30
2019-02-04T02:07:33.570Z,9.88
2019-02-04T02:08:50.281Z,12.43
2019-02-04T02:10:06.914Z,9.45
2019-02-04T02:11:23.819Z,9.45
2019-02-04T02:12:40.382Z,10.35
2019-02-04T02:13:56.626Z,9.15
2019-02-04T02:15:13.185Z,10.43
2019-02-04T02:16:29.669Z,10.78
2019-02-04T02:17:46.264Z,9.83
2019-02-04T02:19:02.768Z,8.98
2019-02-04T02:20:19.498Z,10.08
2019-02-04T02:21:35.909Z,9.43
2019-02-04T02:22:52.614Z,12.25
2019-02-04T02:24:09.156Z,8.90
2019-02-04T02:25:26.374Z,11.22
2019-02-04T02:26:43.064Z,9.48
2019-02-04T02:28:00.908Z,14.23
2019-02-04T02:29:17.413Z,10.48
2019-02-04T02:30:33.903Z,10.63
2019-02-04T02:31:49.077Z,9.53
2019-02-04T02:33:13.173Z,13.53
2019-02-04T02:34:29.549Z,10.18
2019-02-04T02:35:45.937Z,11.60
2019-02-04T02:37:02.540Z,9.33
2019-02-04T02:38:19.654Z,10.93
2019-02-04T02:39:36.101Z,10.58
2019-02-04T02:40:51.386Z,11.25
2019-02-04T02:42:15.463Z,10.80
2019-02-04T02:43:31.960Z,14.87
2019-02-04T02:44:49.137Z,9.80
2019-02-04T02:46:06.179Z,12.28
2019-02-04T02:47:22.753Z,12.50
2019-02-04T02:48:41.378Z,11.73
2019-02-04T02:49:57.812Z,10.00
2019-02-04T02:51:14.958Z,10.65
2019-02-04T02:52:31.397Z,12.53
2019-02-04T02:53:48.117Z,14.58
2019-02-04T02:55:04.699Z,11.95
2019-02-04T02:56:21.090Z,12.70
2019-02-04T02:57:37.505Z,12.65
2019-02-04T02:58:54.040Z,13.55
2019-02-04T03:00:11.370Z,11.00
2019-02-04T03:01:28.527Z,11.15
2019-02-04T03:02:45.710Z,11.75
2019-02-04T03:04:02.023Z,12.00
2019-02-04T03:05:18.473Z,10.48
2019-02-04T03:06:34.972Z,12.78
2019-02-04T03:07:51.601Z,13.53
2019-02-04T03:09:08.492Z,10.72
2019-02-04T03:10:25.037Z,10.32
2019-02-04T03:11:41.689Z,14.83
2019-02-04T03:12:58.880Z,12.00
2019-02-04T03:14:16.038Z,11.95
2019-02-04T03:15:32.468Z,13.35
2019-02-04T03:16:48.853Z,12.45
2019-02-04T03:18:05.115Z,15.25
2019-02-04T03:19:21.529Z,11.90
2019-02-04T03:20:37.783Z,15.50
2019-02-04T03:21:54.650Z,14.00
2019-02-04T03:23:11.166Z,14.28
2019-02-04T03:24:27.946Z,11.60
2019-02-04T03:25:44.336Z,14.95
2019-02-04T03:27:01.041Z,14.05
2019-02-04T03:28:17.609Z,14.60
2019-02-04T03:29:34.087Z,13.75
2019-02-04T03:30:50.718Z,12.40
2019-02-04T03:32:07.850Z,13.03
2019-02-04T03:33:24.840Z,16.20
2019-02-04T03:34:41.189Z,13.85
2019-02-04T03:35:58.149Z,12.18
2019-02-04T03:37:14.419Z,15.63
2019-02-04T03:38:30.981Z,13.90
2019-02-04T03:39:47.950Z,16.85
2019-02-04T03:41:04.378Z,14.93
2019-02-04T03:42:20.955Z,14.83
2019-02-04T03:43:37.564Z,13.60
2019-02-04T03:44:54.758Z,13.95
2019-02-04T03:46:11.526Z,14.10
2019-02-04T03:47:28.331Z,14.15
2019-02-04T03:48:45.362Z,16.52
2019-02-04T03:50:02.609Z,13.95
2019-02-04T03:51:19.633Z,14.20
2019-02-04T03:52:36.412Z,13.62
2019-02-04T03:53:52.788Z,14.43
2019-02-04T03:55:09.176Z,14.20
2019-02-04T03:56:24.381Z,14.98
2019-02-04T03:57:48.453Z,14.03
2019-02-04T03:59:07.130Z,17.65
2019-02-04T04:00:23.905Z,15.15
2019-02-04T04:01:40.540Z,14.23
2019-02-04T04:02:57.634Z,15.18
2019-02-04T04:04:15.141Z,16.62
2019-02-04T04:05:31.458Z,14.25
2019-02-04T04:06:47.935Z,15.00
2019-02-04T04:08:04.858Z,14.60
2019-02-04T04:09:21.457Z,13.62
2019-02-04T04:10:37.719Z,15.30
2019-02-04T04:11:54.409Z,13.00
2019-02-04T04:13:11.572Z,15.50
2019-02-04T04:14:28.085Z,17.25
2019-02-04T04:15:44.794Z,14.07
2019-02-04T04:17:01.812Z,15.35
2019-02-04T04:18:18.220Z,15.45
2019-02-04T04:19:35.281Z,15.15
2019-02-04T04:20:55.389Z,14.53
2019-02-04T04:22:12.573Z,16.85
2019-02-04T04:23:29.276Z,18.23
2019-02-04T04:24:46.473Z,14.15
2019-02-04T04:26:03.241Z,13.28
2019-02-04T04:27:19.722Z,14.73
2019-02-04T04:28:36.597Z,13.32
2019-02-04T04:29:53.203Z,13.93
2019-02-04T04:31:09.778Z,14.63
2019-02-04T04:32:26.177Z,14.58
2019-02-04T04:33:43.085Z,14.35
2019-02-04T04:34:59.692Z,14.55
2019-02-04T04:36:16.988Z,15.05
2019-02-04T04:37:33.611Z,14.43
2019-02-04T04:38:51.033Z,14.75
2019-02-04T04:40:07.435Z,14.35
2019-02-04T04:41:24.461Z,15.63
2019-02-04T04:42:40.932Z,14.43
2019-02-04T04:43:57.796Z,15.88
2019-02-04T04:45:14.248Z,14.47
2019-02-04T04:46:31.365Z,14.60
2019-02-04T04:47:48.452Z,15.88
2019-02-04T04:49:05.121Z,14.15
2019-02-04T04:50:22.271Z,15.25
2019-02-04T04:51:38.753Z,15.38
2019-02-04T04:52:55.225Z,15.95
2019-02-04T04:54:12.468Z,18.80
2019-02-04T04:55:29.120Z,16.42
2019-02-04T04:56:45.492Z,15.03
2019-02-04T04:58:03.288Z,15.68
2019-02-04T04:59:19.801Z,16.00
2019-02-04T05:00:36.213Z,15.10
2019-02-04T05:01:52.464Z,16.10
2019-02-04T05:03:09.117Z,17.25
2019-02-04T05:04:26.387Z,16.23
2019-02-04T05:05:42.800Z,14.68
2019-02-04T05:07:00.662Z,17.73
2019-02-04T05:08:17.688Z,19.40
2019-02-04T05:09:34.266Z,18.20
2019-02-04T05:10:50.625Z,18.57
2019-02-04T05:12:07.854Z,22.58
2019-02-04T05:13:24.580Z,17.07
2019-02-04T05:14:41.002Z,18.15
2019-02-04T05:15:57.456Z,18.45
2019-02-04T05:17:13.887Z,18.07
2019-02-04T05:18:37.732Z,19.50
2019-02-04T05:19:49.350Z,18.67
2019-02-04T05:21:05.646Z,20.57
2019-02-04T05:22:22.125Z,18.95
2019-02-04T05:23:38.760Z,18.23
2019-02-04T05:24:55.068Z,23.12
2019-02-04T05:26:11.662Z,19.65
2019-02-04T05:27:28.890Z,19.67
2019-02-04T05:28:46.119Z,22.42
2019-02-04T05:30:02.938Z,23.12
2019-02-04T05:31:19.332Z,20.35
2019-02-04T05:32:35.912Z,21.82
2019-02-04T05:33:53.176Z,23.42
2019-02-04T05:35:09.604Z,21.25
2019-02-04T05:36:26.874Z,20.82
2019-02-04T05:37:44.001Z,19.17
2019-02-04T05:39:00.521Z,18.55
2019-02-04T05:40:18.198Z,20.15
2019-02-04T05:41:35.145Z,19.37
2019-02-04T05:42:51.630Z,19.55
2019-02-04T05:44:10.864Z,18.92
2019-02-04T05:46:43.194Z,18.30
2019-02-04T05:47:59.606Z,19.30
2019-02-04T05:49:14.881Z,19.73
2019-02-04T05:50:39.050Z,19.17
2019-02-04T05:52:16.901Z,19.60
2019-02-04T05:53:33.385Z,18.98
2019-02-04T05:54:50.630Z,18.95
2019-02-04T05:56:07.222Z,18.70
2019-02-04T05:57:24.590Z,17.50
2019-02-04T05:58:39.742Z,20.65
2019-02-04T06:00:04.981Z,18.55
2019-02-04T06:01:23.742Z,17.45
2019-02-04T06:02:40.314Z,16.30
2019-02-04T06:03:56.718Z,18.07
2019-02-04T06:05:13.356Z,18.85
2019-02-04T06:06:29.786Z,17.98
2019-02-04T06:07:47.293Z,17.32
2019-02-04T06:09:04.760Z,16.50
2019-02-04T06:10:21.501Z,17.90
2019-02-04T06:11:38.080Z,17.50
2019-02-04T06:12:54.663Z,15.53
2019-02-04T06:14:11.343Z,16.17
2019-02-04T06:15:27.765Z,17.95
2019-02-04T06:16:44.357Z,18.05
2019-02-04T06:18:01.137Z,17.42
2019-02-04T06:20:33.107Z,17.20
2019-02-04T06:21:50.428Z,16.30
2019-02-04T06:23:06.924Z,16.05
2019-02-04T06:24:23.467Z,16.95
2019-02-04T06:25:40.994Z,17.23
2019-02-04T06:26:58.053Z,18.32
2019-02-04T06:28:15.258Z,19.10
2019-02-04T06:29:31.828Z,18.23
2019-02-04T06:30:49.193Z,18.00
2019-02-04T06:32:05.621Z,16.48
2019-02-04T06:33:20.871Z,17.05
2019-02-04T06:34:37.462Z,17.62
2019-02-04T06:35:52.732Z,17.37
2019-02-04T06:37:17.001Z,17.50
2019-02-04T06:38:33.686Z,17.17
2019-02-04T06:39:48.922Z,17.40
2019-02-04T06:41:13.053Z,15.75
2019-02-04T06:42:29.684Z,17.65
2019-02-04T06:43:46.039Z,17.30
2019-02-04T06:45:02.660Z,21.37
2019-02-04T06:46:20.082Z,19.73
2019-02-04T06:47:36.460Z,21.93
2019-02-04T06:48:52.825Z,19.75
2019-02-04T06:50:09.482Z,20.48
2019-02-04T06:51:27.996Z,23.32
2019-02-04T06:52:45.063Z,27.65
2019-02-04T06:54:02.346Z,28.07
2019-02-04T06:55:18.817Z,32.75
2019-02-04T06:56:36.057Z,26.50
2019-02-04T06:57:53.298Z,27.07
2019-02-04T06:59:10.062Z,29.42
2019-02-04T07:00:27.453Z,29.92
2019-02-04T07:01:43.867Z,31.40
2019-02-04T07:03:00.630Z,36.03
2019-02-04T07:04:18.115Z,33.65
2019-02-04T07:05:43.445Z,28.65
2019-02-04T07:06:53.087Z,27.80
2019-02-04T07:08:09.634Z,31.52
2019-02-04T07:09:26.020Z,28.98
2019-02-04T07:10:42.464Z,28.50
2019-02-04T07:11:58.927Z,29.65
2019-02-04T07:13:15.747Z,28.67
2019-02-04T07:14:32.261Z,28.30
2019-02-04T07:15:48.647Z,24.32
2019-02-04T07:17:05.452Z,23.27
2019-02-04T07:18:22.874Z,22.30
2019-02-04T07:19:40.093Z,20.72
2019-02-04T07:22:13.931Z,25.82
2019-02-04T07:23:31.146Z,23.00
2019-02-04T07:24:48.530Z,24.35
2019-02-04T07:26:04.893Z,23.87
2019-02-04T07:27:22.694Z,23.83
2019-02-04T07:28:27.967Z,21.15
2019-02-04T07:29:33.140Z,19.98
2019-02-04T07:30:38.252Z,17.48
2019-02-04T07:31:43.297Z,17.77
2019-02-04T07:32:48.805Z,16.48
2019-02-04T07:33:53.839Z,14.25
2019-02-04T07:34:59.058Z,16.62
2019-02-04T07:36:04.578Z,17.10
2019-02-04T07:37:09.709Z,14.80
2019-02-04T07:38:15.945Z,15.68
2019-02-04T07:39:21.069Z,12.58
2019-02-04T07:40:28.257Z,12.85
2019-02-04T07:41:33.426Z,14.15
2019-02-04T07:42:38.534Z,11.35
2019-02-04T07:43:43.649Z,10.58
2019-02-04T07:44:48.764Z,13.00
2019-02-04T07:45:53.881Z,11.88
2019-02-04T07:46:58.922Z,12.95
2019-02-04T07:48:04.443Z,13.45
2019-02-04T07:49:09.481Z,11.45
2019-02-04T07:50:14.594Z,11.30
2019-02-04T07:51:19.712Z,11.90
2019-02-04T07:52:24.881Z,11.30
2019-02-04T07:53:29.987Z,10.20
2019-02-04T07:54:35.026Z,10.00
2019-02-04T07:55:40.171Z,10.23
2019-02-04T07:56:45.529Z,10.78
2019-02-04T07:57:51.016Z,12.37
2019-02-04T07:58:56.056Z,10.53
2019-02-04T08:00:01.175Z,11.60
2019-02-04T08:01:06.441Z,10.65
2019-02-04T08:02:11.572Z,10.38
2019-02-04T08:03:16.693Z,10.55
2019-02-04T08:04:21.807Z,9.90
2019-02-04T08:05:26.964Z,11.55
2019-02-04T08:06:32.067Z,10.80
2019-02-04T08:07:37.177Z,15.28
2019-02-04T08:08:42.435Z,12.03
2019-02-04T08:09:47.505Z,11.03
2019-02-04T08:10:52.694Z,12.75
2019-02-04T08:11:57.737Z,11.95
2019-02-04T08:13:02.842Z,11.60
2019-02-04T08:14:08.201Z,12.50
2019-02-04T08:15:16.405Z,10.88
2019-02-04T08:16:21.445Z,11.93
2019-02-04T08:17:26.581Z,11.88
2019-02-04T08:18:32.093Z,11.63
2019-02-04T08:19:46.688Z,10.20
2019-02-04T08:20:44.009Z,10.28
2019-02-04T08:21:49.155Z,10.65
2019-02-04T08:22:54.253Z,11.75
2019-02-04T08:23:59.271Z,10.90
2019-02-04T08:25:04.805Z,11.43
2019-02-04T08:26:09.852Z,11.30
2019-02-04T08:27:14.892Z,10.60
2019-02-04T08:28:20.012Z,11.70
2019-02-04T08:29:25.141Z,11.03
2019-02-04T08:30:32.476Z,10.53
2019-02-04T08:31:37.649Z,11.10
2019-02-04T08:32:42.834Z,13.90
2019-02-04T08:33:47.954Z,10.08
2019-02-04T08:34:53.110Z,11.08
2019-02-04T08:35:58.229Z,11.05
2019-02-04T08:37:03.337Z,11.70
2019-02-04T08:38:08.361Z,11.10
2019-02-04T08:39:14.888Z,9.90
2019-02-04T08:40:20.601Z,10.82
2019-02-04T08:41:25.796Z,11.12
2019-02-04T08:42:31.032Z,11.45
2019-02-04T08:43:36.264Z,12.15
2019-02-04T08:44:41.420Z,11.10
2019-02-04T08:45:46.464Z,12.28
2019-02-04T08:46:51.602Z,11.48
2019-02-04T08:47:56.644Z,11.48
2019-02-04T08:49:02.861Z,11.22
2019-02-04T08:50:09.734Z,11.05
2019-02-04T08:51:14.977Z,11.45
2019-02-04T08:52:20.113Z,12.10
2019-02-04T08:53:25.264Z,11.65
2019-02-04T08:54:30.456Z,10.05
2019-02-04T08:55:37.017Z,12.43
2019-02-04T08:56:43.085Z,11.88
2019-02-04T08:57:48.285Z,11.30
2019-02-04T08:58:53.410Z,10.43
2019-02-04T08:59:58.849Z,10.82
2019-02-04T09:01:04.389Z,12.23
2019-02-04T09:02:09.522Z,11.03
2019-02-04T09:03:14.652Z,11.88
2019-02-04T09:04:19.769Z,11.83
2019-02-04T09:05:25.541Z,11.33
2019-02-04T09:06:30.741Z,11.33
2019-02-04T09:07:35.804Z,10.93
2019-02-04T09:08:40.950Z,12.68
2019-02-04T09:09:46.051Z,11.93
2019-02-04T09:10:51.164Z,11.12
2019-02-04T09:11:56.277Z,11.30
2019-02-04T09:13:01.961Z,11.88
2019-02-04T09:14:07.496Z,12.90
2019-02-04T09:15:16.105Z,12.82
2019-02-04T09:16:20.079Z,12.13
2019-02-04T09:17:25.228Z,12.18
2019-02-04T09:18:30.508Z,12.58
2019-02-04T09:19:35.928Z,11.68
2019-02-04T09:20:41.238Z,10.85
2019-02-04T09:21:46.348Z,13.10
2019-02-04T09:22:51.415Z,12.20
2019-02-04T09:23:56.705Z,11.90
2019-02-04T09:25:01.763Z,11.88
2019-02-04T09:26:07.014Z,10.60
2019-02-04T09:27:12.138Z,11.83
2019-02-04T09:28:17.183Z,12.68
2019-02-04T09:29:22.272Z,11.45
2019-02-04T09:30:28.286Z,11.78
2019-02-04T09:31:33.541Z,12.18
2019-02-04T09:32:38.657Z,11.43
2019-02-04T09:33:43.779Z,14.58
2019-02-04T09:34:48.853Z,12.15
2019-02-04T09:35:54.022Z,12.95
2019-02-04T09:36:59.130Z,12.15
2019-02-04T09:38:04.208Z,11.35
2019-02-04T09:39:10.925Z,11.75
2019-02-04T09:40:28.697Z,12.35
2019-02-04T09:41:33.815Z,10.65
2019-02-04T09:42:39.014Z,10.40
2019-02-04T09:43:44.545Z,12.40
2019-02-04T09:44:49.896Z,11.95
2019-02-04T09:45:55.008Z,11.12
2019-02-04T09:47:00.212Z,11.78
2019-02-04T09:48:07.109Z,13.98
2019-02-04T09:49:12.287Z,11.68
2019-02-04T09:50:21.918Z,10.90
2019-02-04T09:51:25.531Z,11.85
2019-02-04T09:52:30.734Z,12.30
2019-02-04T09:53:35.834Z,12.55
2019-02-04T09:54:40.963Z,11.60
2019-02-04T09:55:46.109Z,12.30
2019-02-04T09:56:51.242Z,12.98
2019-02-04T09:57:56.346Z,12.03
2019-02-04T09:59:01.464Z,10.90
2019-02-04T10:00:07.303Z,10.40
2019-02-04T10:01:13.485Z,11.68
2019-02-04T10:02:18.586Z,10.88
2019-02-04T10:03:23.697Z,10.80
2019-02-04T10:04:28.815Z,10.95
2019-02-04T10:05:34.313Z,10.10
2019-02-04T10:06:39.918Z,10.38
2019-02-04T10:07:45.375Z,9.33
2019-02-04T10:08:50.493Z,12.35
2019-02-04T10:09:55.611Z,11.00
2019-02-04T10:11:00.716Z,10.20
2019-02-04T10:12:05.916Z,10.82
2019-02-04T10:13:11.054Z,11.43
2019-02-04T10:14:16.135Z,10.90
2019-02-04T10:15:32.817Z,12.10
2019-02-04T10:16:37.996Z,10.93
2019-02-04T10:17:43.216Z,9.40
2019-02-04T10:18:48.254Z,10.00
2019-02-04T10:19:53.317Z,10.78
2019-02-04T10:20:58.526Z,11.45
2019-02-04T10:22:03.741Z,10.08
2019-02-04T10:23:09.048Z,8.85
2019-02-04T10:24:14.242Z,9.48
2019-02-04T10:25:21.681Z,8.30
2019-02-04T10:26:26.900Z,7.47
2019-02-04T10:27:32.091Z,7.97
2019-02-04T10:28:37.289Z,7.78
2019-02-04T10:29:42.364Z,8.03
2019-02-04T10:30:47.387Z,7.42
2019-02-04T10:31:52.854Z,8.28
2019-02-04T10:32:58.336Z,6.60
2019-02-04T10:34:03.421Z,7.62
2019-02-04T10:35:16.584Z,9.80
2019-02-04T10:36:16.029Z,6.50
2019-02-04T10:37:21.174Z,7.83
2019-02-04T10:38:26.299Z,6.90
2019-02-04T10:39:31.571Z,8.03
2019-02-04T10:40:36.782Z,6.87
2019-02-04T10:41:41.941Z,9.25
2019-02-04T10:42:47.175Z,10.03
2019-02-04T10:43:52.363Z,9.23
2019-02-04T10:44:57.595Z,9.18
2019-02-04T10:46:04.821Z,9.30
2019-02-04T10:47:10.956Z,9.05
2019-02-04T10:48:17.105Z,9.98
2019-02-04T10:49:22.298Z,9.00
2019-02-04T10:50:29.688Z,8.50
2019-02-04T10:51:34.898Z,8.25
2019-02-04T10:52:40.996Z,9.08
2019-02-04T10:53:46.236Z,9.00
2019-02-04T10:54:54.528Z,11.88
2019-02-04T10:55:59.964Z,11.90
2019-02-04T10:57:05.585Z,10.60
2019-02-04T10:58:12.828Z,9.30
2019-02-04T10:59:18.013Z,9.03
2019-02-04T11:00:26.173Z,8.95
2019-02-04T11:01:31.326Z,9.55
2019-02-04T11:02:36.553Z,11.73
2019-02-04T11:03:41.700Z,10.60
2019-02-04T11:04:46.852Z,11.10
2019-02-04T11:05:52.132Z,10.32
2019-02-04T11:06:57.338Z,10.03
2019-02-04T11:08:02.551Z,11.33
2019-02-04T11:09:10.020Z,10.53
2019-02-04T11:10:16.382Z,10.38
2019-02-04T11:11:22.756Z,11.00
2019-02-04T11:12:27.818Z,9.98
2019-02-04T11:13:33.984Z,10.40
2019-02-04T11:14:41.881Z,11.03
2019-02-04T11:15:48.205Z,10.78
2019-02-04T11:16:55.406Z,10.10
2019-02-04T11:18:00.804Z,9.70
2019-02-04T11:19:06.546Z,13.22
2019-02-04T11:20:18.469Z,12.45
2019-02-04T11:21:23.608Z,11.18
2019-02-04T11:22:28.803Z,12.05
2019-02-04T11:23:33.982Z,10.65
2019-02-04T11:24:39.161Z,10.85
2019-02-04T11:25:44.660Z,10.58
2019-02-04T11:26:49.861Z,10.13
2019-02-04T11:27:55.151Z,11.03
2019-02-04T11:29:00.339Z,12.05
2019-02-04T11:30:09.219Z,10.25
2019-02-04T11:31:14.284Z,10.32
2019-02-04T11:32:19.610Z,9.83
2019-02-04T11:33:24.844Z,10.80
2019-02-04T11:34:30.011Z,9.68
2019-02-04T11:35:35.076Z,12.05
2019-02-04T11:36:40.358Z,11.30
2019-02-04T11:37:45.537Z,12.88
2019-02-04T11:38:50.845Z,10.80
2019-02-04T11:39:56.076Z,10.48
2019-02-04T11:41:01.179Z,9.65
2019-02-04T11:42:06.393Z,11.73
2019-02-04T11:43:11.728Z,9.73
2019-02-04T11:44:16.737Z,11.25
2019-02-04T11:45:21.906Z,8.38
2019-02-04T11:46:27.328Z,9.20
2019-02-04T11:47:32.839Z,10.78
2019-02-04T11:48:38.425Z,12.05
2019-02-04T11:49:43.591Z,10.58
2019-02-04T11:50:48.613Z,8.95
2019-02-04T11:51:53.997Z,9.48
2019-02-04T11:52:59.133Z,8.90
2019-02-04T11:54:04.297Z,11.25
2019-02-04T11:55:10.200Z,11.65
2019-02-04T11:56:15.325Z,8.13
2019-02-04T11:57:20.437Z,9.50
2019-02-04T11:58:25.525Z,10.45
2019-02-04T11:59:30.676Z,8.33
2019-02-04T12:00:36.206Z,8.10
2019-02-04T12:01:41.397Z,9.70
2019-02-04T12:02:46.517Z,10.18
2019-02-04T12:03:51.688Z,9.53
2019-02-04T12:04:56.803Z,8.03
2019-02-04T12:06:01.988Z,9.15
2019-02-04T12:07:07.092Z,7.67
2019-02-04T12:08:13.765Z,7.30
2019-02-04T12:09:19.281Z,8.78
2019-02-04T12:10:36.399Z,8.50
2019-02-04T12:11:41.527Z,10.70
2019-02-04T12:12:47.005Z,7.92
2019-02-04T12:13:52.602Z,8.55
2019-02-04T12:14:58.827Z,7.35
2019-02-04T12:16:04.014Z,7.15
2019-02-04T12:17:09.144Z,5.97
2019-02-04T12:18:14.197Z,7.60
2019-02-04T12:19:19.362Z,5.78
2019-02-04T12:20:24.484Z,6.05
2019-02-04T12:21:29.637Z,6.08
2019-02-04T12:22:34.860Z,5.72
2019-02-04T12:23:39.993Z,5.97
2019-02-04T12:24:45.120Z,5.55
2019-02-04T12:25:50.175Z,5.72
2019-02-04T12:26:55.277Z,6.25
2019-02-04T12:28:00.303Z,5.72
2019-02-04T12:29:05.656Z,6.03
2019-02-04T12:30:23.869Z,6.20
2019-02-04T12:31:29.135Z,6.15
2019-02-04T12:32:34.278Z,6.00
2019-02-04T12:33:39.321Z,6.45
2019-02-04T12:34:44.412Z,6.00
2019-02-04T12:35:49.477Z,7.17
2019-02-04T12:36:54.890Z,6.85
2019-02-04T12:38:00.423Z,7.60
2019-02-04T12:39:16.609Z,9.53
2019-02-04T12:40:22.018Z,8.28
2019-02-04T12:41:27.510Z,9.33
2019-02-04T12:42:32.598Z,9.35
2019-02-04T12:43:37.829Z,7.28
2019-02-04T12:44:42.865Z,10.98
2019-02-04T12:45:47.984Z,7.67
2019-02-04T12:46:53.080Z,7.28
2019-02-04T12:48:00.676Z,6.53
2019-02-04T12:49:05.108Z,6.65
2019-02-04T12:50:10.421Z,6.53
2019-02-04T12:51:15.930Z,7.22
2019-02-04T12:52:21.125Z,6.85
2019-02-04T12:53:26.213Z,7.15
2019-02-04T12:54:31.344Z,6.87
2019-02-04T12:55:36.463Z,7.17
2019-02-04T12:56:41.649Z,10.05
2019-02-04T12:57:47.112Z,8.03
2019-02-04T12:58:55.684Z,9.58
2019-02-04T12:59:58.984Z,10.88
2019-02-04T13:01:06.309Z,6.60
2019-02-04T13:02:11.350Z,8.38
2019-02-04T13:03:16.659Z,8.48
2019-02-04T13:04:22.185Z,8.15
2019-02-04T13:05:34.216Z,8.95
2019-02-04T13:06:39.721Z,9.90
2019-02-04T13:07:44.890Z,8.08
2019-02-04T13:08:51.145Z,7.30
2019-02-04T13:09:56.281Z,7.72
2019-02-04T13:11:01.359Z,8.15
2019-02-04T13:12:09.083Z,8.08
2019-02-04T13:13:18.326Z,8.48
2019-02-04T13:14:23.425Z,9.40
2019-02-04T13:15:28.454Z,8.83
2019-02-04T13:16:33.501Z,9.20
2019-02-04T13:17:38.557Z,7.83
2019-02-04T13:18:43.712Z,6.90
2019-02-04T13:19:48.805Z,8.73
2019-02-04T13:20:53.903Z,7.55
2019-02-04T13:21:59.070Z,10.82
2019-02-04T13:23:04.499Z,7.25
2019-02-04T13:24:09.597Z,7.40
2019-02-04T13:25:17.978Z,8.23
2019-02-04T13:26:23.109Z,8.65
2019-02-04T13:27:47.265Z,8.75
2019-02-04T13:29:04.562Z,9.60
2019-02-04T13:30:21.636Z,9.60
2019-02-04T13:31:39.032Z,8.65
2019-02-04T13:32:55.585Z,7.55
2019-02-04T13:34:12.537Z,10.40
2019-02-04T13:35:31.026Z,9.60
2019-02-04T13:36:47.701Z,9.68
2019-02-04T13:38:04.532Z,8.50
2019-02-04T13:39:21.070Z,9.50
2019-02-04T13:40:37.581Z,8.53
2019-02-04T13:41:54.294Z,9.10
2019-02-04T13:43:11.554Z,8.53
2019-02-04T13:44:27.892Z,9.25
2019-02-04T13:45:44.571Z,9.90
2019-02-04T13:47:01.673Z,9.75
2019-02-04T13:48:18.128Z,9.43
2019-02-04T13:49:34.520Z,9.15
2019-02-04T13:50:50.779Z,8.18
2019-02-04T13:52:07.733Z,7.45
2019-02-04T13:53:26.936Z,8.40
2019-02-04T13:54:42.511Z,8.83
2019-02-04T13:55:59.762Z,9.88
2019-02-04T13:57:16.421Z,11.80
2019-02-04T13:58:32.738Z,9.65
2019-02-04T13:59:49.601Z,9.85
2019-02-04T14:01:06.141Z,12.05
2019-02-04T14:02:22.631Z,12.60
2019-02-04T14:03:39.862Z,8.63
2019-02-04T14:04:56.624Z,7.78
2019-02-04T14:07:29.057Z,7.30
2019-02-04T14:08:46.294Z,7.85
2019-02-04T14:10:02.602Z,6.42
2019-02-04T14:11:19.625Z,7.20
2019-02-04T14:12:36.002Z,6.40
2019-02-04T14:13:52.960Z,7.37
2019-02-04T14:15:10.621Z,6.08
2019-02-04T14:16:27.030Z,6.45
2019-02-04T14:17:44.080Z,9.33
2019-02-04T14:19:00.690Z,7.25
2019-02-04T14:20:18.958Z,5.62
2019-02-04T14:21:35.238Z,5.45
2019-02-04T14:22:53.391Z,5.70
2019-02-04T14:24:10.489Z,7.33
2019-02-04T14:25:27.710Z,6.70
2019-02-04T14:26:44.857Z,7.75
2019-02-04T14:28:03.642Z,5.78
2019-02-04T14:29:20.653Z,6.92
2019-02-04T14:30:37.425Z,10.80
2019-02-04T14:31:53.817Z,6.53
2019-02-04T14:33:10.272Z,8.70
2019-02-04T14:34:26.719Z,8.48
2019-02-04T14:35:44.861Z,8.23
2019-02-04T14:37:01.595Z,7.20
2019-02-04T14:38:18.054Z,7.37
2019-02-04T14:39:34.993Z,7.37
2019-02-04T14:40:52.157Z,7.40
2019-02-04T14:42:08.510Z,7.40
2019-02-04T14:43:25.096Z,7.33
2019-02-04T14:44:41.604Z,6.80
2019-02-04T14:45:58.070Z,7.80
2019-02-04T14:47:14.456Z,7.90
2019-02-04T14:48:31.734Z,8.65
2019-02-04T14:49:48.288Z,7.15
2019-02-04T14:51:05.115Z,7.40
2019-02-04T14:52:22.330Z,7.40
2019-02-04T14:53:38.681Z,9.48
2019-02-04T14:54:55.060Z,10.15
2019-02-04T14:56:11.449Z,8.20
2019-02-04T14:57:28.767Z,7.50
2019-02-04T14:58:45.457Z,7.65
2019-02-04T15:00:01.862Z,8.15
2019-02-04T15:01:20.497Z,6.80
2019-02-04T15:02:36.961Z,7.42
2019-02-04T15:03:53.686Z,7.00
2019-02-04T15:05:10.855Z,7.87
2019-02-04T15:06:28.075Z,7.30
2019-02-04T15:07:44.587Z,7.33
2019-02-04T15:09:00.893Z,7.45
2019-02-04T15:10:21.637Z,10.75
2019-02-04T15:11:38.436Z,8.98
2019-02-04T15:12:54.718Z,7.87
2019-02-04T15:14:11.254Z,8.95
2019-02-04T15:15:28.131Z,8.40
2019-02-04T15:17:02.556Z,7.37
2019-02-04T15:18:45.721Z,10.95
2019-02-04T15:20:02.240Z,8.80
2019-02-04T15:21:18.809Z,8.55
2019-02-04T15:22:35.507Z,7.95
2019-02-04T15:23:52.788Z,8.98
2019-02-04T15:25:09.149Z,9.28
2019-02-04T15:26:26.090Z,7.80
2019-02-04T15:27:42.890Z,8.28
2019-02-04T15:28:59.119Z,7.97
2019-02-04T15:30:15.567Z,9.05
2019-02-04T15:31:32.354Z,8.03
2019-02-04T15:32:48.916Z,9.23
2019-02-04T15:34:06.036Z,7.87
2019-02-04T15:35:22.717Z,9.48
2019-02-04T15:36:39.410Z,7.30
2019-02-04T15:37:56.098Z,8.28
2019-02-04T15:39:36.664Z,9.10
2019-02-04T15:40:53.373Z,7.60
2019-02-04T15:42:09.795Z,8.10
2019-02-04T15:43:26.214Z,8.63
2019-02-04T15:44:43.772Z,7.42
2019-02-04T15:46:00.252Z,9.03
2019-02-04T15:47:16.790Z,7.85
2019-02-04T15:48:33.319Z,10.00